Time;durP1;ratioP1;P1;durP2;ratioP2;P2;SDS_P1;SDS_P2;PMS_P1;PMS_P2;Temp;Humidity;BMP_temperature;BMP_pressure;BME280_temperature;BME280_humidity;BME280_pressure;Samples;Min_cycle;Max_cycle;Signal;HPM_P1;HPM_P2
2023/05/17 07:59:59;;;;;;;3.97;1.80;;;12.30;99.90;;;;;;7919640;28;22170;-65
2023/05/17 08:04:50;;;;;;;3.72;2.10;;;12.30;99.90;;;;;;10179586;28;20046;-62
2023/05/17 08:09:43;;;;;;;3.50;2.00;;;12.40;99.90;;;;;;10176270;28;20038;-61
2023/05/17 08:14:33;;;;;;;6.10;2.33;;;12.30;99.90;;;;;;10167294;28;20446;-62
2023/05/17 08:19:25;;;;;;;5.72;3.42;;;12.50;99.90;;;;;;10177994;28;20024;-65
2023/05/17 08:24:16;;;;;;;4.25;1.92;;;12.50;99.70;;;;;;10172625;28;20443;-60
2023/05/17 08:29:07;;;;;;;3.35;2.22;;;12.60;99.60;;;;;;10179445;28;20081;-66
2023/05/17 08:33:57;;;;;;;8.82;2.88;;;13.00;99.50;;;;;;10179354;28;20077;-66
2023/05/17 08:38:48;;;;;;;8.13;2.90;;;13.10;99.40;;;;;;10166975;28;20170;-61
2023/05/17 08:43:40;;;;;;;5.68;2.38;;;13.20;99.20;;;;;;10178344;28;20602;-66
2023/05/17 08:48:35;;;;;;;5.70;2.47;;;13.30;99.20;;;;;;10179303;28;20034;-61
2023/05/17 08:53:26;;;;;;;4.32;2.40;;;13.50;99.00;;;;;;10175212;28;20035;-67
2023/05/17 08:58:21;;;;;;;5.03;2.50;;;13.70;98.70;;;;;;10179386;28;20028;-72
2023/05/17 09:03:16;;;;;;;4.07;1.95;;;13.80;98.40;;;;;;10191925;28;20036;-61
2023/05/17 09:08:12;;;;;;;6.18;2.88;;;14.00;98.40;;;;;;10192663;28;20028;-67
2023/05/17 09:13:03;;;;;;;8.50;3.42;;;14.30;98.00;;;;;;10189387;28;20562;-61
2023/05/17 09:17:54;;;;;;;5.45;2.50;;;14.70;98.20;;;;;;10196181;28;20137;-67
2023/05/17 09:22:48;;;;;;;3.38;2.13;;;14.80;98.10;;;;;;10213467;28;20054;-66
2023/05/17 09:27:38;;;;;;;2.80;2.17;;;14.90;97.90;;;;;;10215418;28;20032;-62
2023/05/17 09:32:29;;;;;;;4.45;2.47;;;14.70;97.80;;;;;;10227627;28;20046;-67
2023/05/17 09:37:20;;;;;;;4.78;2.05;;;14.30;97.80;;;;;;10231319;27;20032;-60
2023/05/17 09:42:15;;;;;;;9.02;2.30;;;14.00;97.70;;;;;;10228013;28;20027;-69
2023/05/17 09:47:06;;;;;;;3.40;1.90;;;13.80;97.60;;;;;;10227232;28;20077;-61
2023/05/17 09:51:56;;;;;;;5.18;2.42;;;13.70;97.60;;;;;;10208121;28;20068;-62
2023/05/17 09:56:53;;;;;;;6.68;2.45;;;14.00;97.40;;;;;;10225946;28;20042;-62
2023/05/17 10:01:44;;;;;;;9.38;3.20;;;14.20;97.30;;;;;;10221500;28;20044;-62
2023/05/17 10:06:38;;;;;;;3.38;1.70;;;14.30;97.10;;;;;;10238512;27;20080;-68
2023/05/17 10:11:34;;;;;;;4.55;2.10;;;14.00;97.20;;;;;;10225280;28;20360;-62
2023/05/17 10:16:25;;;;;;;6.80;2.28;;;14.20;97.10;;;;;;10213163;28;20437;-61
2023/05/17 10:21:16;;;;;;;6.10;2.90;;;14.40;97.10;;;;;;10224890;28;20016;-65
2023/05/17 10:26:08;;;;;;;5.88;2.92;;;14.60;97.00;;;;;;10224899;28;20081;-61
2023/05/17 10:31:00;;;;;;;6.22;3.15;;;15.00;96.90;;;;;;10232503;27;20389;-61
2023/05/17 10:35:55;;;;;;;7.43;3.58;;;15.40;96.80;;;;;;10224265;28;20039;-73
2023/05/17 10:40:47;;;;;;;4.43;1.92;;;15.90;96.60;;;;;;10224720;28;20501;-62
2023/05/17 10:45:39;;;;;;;5.25;2.70;;;16.00;96.50;;;;;;10228979;27;20482;-62
2023/05/17 10:50:30;;;;;;;5.60;2.97;;;16.00;96.30;;;;;;10224243;28;20032;-63
2023/05/17 10:55:23;;;;;;;6.57;2.78;;;15.80;96.20;;;;;;10223626;28;20152;-62
2023/05/17 11:00:19;;;;;;;4.22;2.72;;;15.60;96.10;;;;;;10222965;28;20024;-62
2023/05/17 11:05:23;;;;;;;3.53;2.33;;;15.80;96.00;;;;;;10223718;28;20027;-61
2023/05/17 11:10:15;;;;;;;4.47;2.80;;;16.20;95.70;;;;;;10206174;28;20028;-62
2023/05/17 11:15:12;;;;;;;5.68;2.97;;;16.00;95.60;;;;;;10217468;28;20464;-62
2023/05/17 11:20:05;;;;;;;7.88;2.95;;;16.20;95.30;;;;;;10225518;28;20027;-68
2023/05/17 11:24:56;;;;;;;7.40;3.03;;;16.20;95.20;;;;;;10223297;28;20500;-69
2023/05/17 11:29:47;;;;;;;6.07;2.53;;;16.30;95.10;;;;;;10235866;27;20049;-63
2023/05/17 11:34:38;;;;;;;4.88;2.20;;;16.40;94.80;;;;;;10222209;28;20432;-70
2023/05/17 11:39:29;;;;;;;3.28;2.53;;;16.50;94.70;;;;;;10205646;28;20516;-68
2023/05/17 11:44:26;;;;;;;6.32;2.25;;;16.10;94.20;;;;;;10225735;27;20019;-62
2023/05/17 11:49:17;;;;;;;3.83;1.70;;;16.10;93.80;;;;;;10196478;28;20107;-61
2023/05/17 11:54:10;;;;;;;6.00;2.03;;;16.00;93.90;;;;;;10221745;28;20265;-62
2023/05/17 11:59:01;;;;;;;5.43;1.90;;;16.20;93.80;;;;;;10225283;27;20024;-65
2023/05/17 12:03:58;;;;;;;4.07;2.38;;;15.70;93.60;;;;;;10221502;28;20055;-61
2023/05/17 12:08:49;;;;;;;7.53;2.33;;;15.30;93.60;;;;;;10238490;27;20029;-61
2023/05/17 12:13:41;;;;;;;7.32;2.70;;;15.10;93.80;;;;;;10208948;27;20499;-62
2023/05/17 12:18:39;;;;;;;4.07;2.42;;;15.00;93.80;;;;;;10218800;28;20366;-61
2023/05/17 12:23:33;;;;;;;6.82;2.30;;;15.10;93.70;;;;;;10214214;27;20023;-62
2023/05/17 12:28:23;;;;;;;5.85;2.20;;;15.50;93.60;;;;;;10212364;28;20089;-60
2023/05/17 12:33:14;;;;;;;3.75;2.00;;;15.80;93.60;;;;;;10214199;28;20039;-62
2023/05/17 12:38:05;;;;;;;4.78;2.53;;;15.80;93.50;;;;;;10224544;27;20028;-63
2023/05/17 12:43:02;;;;;;;2.58;1.88;;;15.80;93.50;;;;;;10218877;28;20027;-64
2023/05/17 12:47:53;;;;;;;3.58;2.20;;;16.10;93.50;;;;;;10219556;28;20031;-62
2023/05/17 12:52:44;;;;;;;3.50;2.50;;;16.50;93.50;;;;;;10219647;28;20030;-62
2023/05/17 12:57:34;;;;;;;7.47;2.13;;;16.50;93.20;;;;;;10218919;28;20111;-62
2023/05/17 13:02:25;;;;;;;6.68;2.50;;;16.40;93.20;;;;;;10219522;28;20226;-68
2023/05/17 13:07:23;;;;;;;2.72;1.80;;;16.10;93.20;;;;;;10219107;28;20028;-63
2023/05/17 13:12:23;;;;;;;3.80;1.58;;;16.10;93.30;;;;;;10211706;28;20424;-62
2023/05/17 13:17:23;;;;;;;4.20;1.80;;;16.50;93.10;;;;;;10213606;28;20140;-61
2023/05/17 13:22:14;;;;;;;3.95;1.95;;;16.70;93.00;;;;;;10226343;28;20386;-61
2023/05/17 13:27:06;;;;;;;3.63;2.55;;;16.70;92.90;;;;;;10220000;28;20049;-64
2023/05/17 13:31:56;;;;;;;5.63;2.00;;;16.60;92.90;;;;;;10219737;28;20034;-67
2023/05/17 13:36:47;;;;;;;3.97;2.22;;;16.40;92.60;;;;;;10230230;28;20034;-70
2023/05/17 13:41:39;;;;;;;3.78;2.00;;;16.60;92.40;;;;;;10219423;28;20076;-62
2023/05/17 13:46:30;;;;;;;5.63;1.92;;;17.00;92.20;;;;;;10210453;28;20030;-65
2023/05/17 13:51:20;;;;;;;8.68;2.17;;;17.90;92.00;;;;;;10234679;28;20362;-64
2023/05/17 13:56:11;;;;;;;4.22;2.70;;;18.50;91.30;;;;;;10224011;28;20576;-68
2023/05/17 14:01:02;;;;;;;5.60;2.78;;;19.80;91.20;;;;;;10222764;27;20131;-62
2023/05/17 14:05:53;;;;;;;5.35;1.90;;;19.60;90.40;;;;;;10232475;27;20031;-62
2023/05/17 14:10:43;;;;;;;6.35;2.60;;;19.60;90.40;;;;;;10225451;28;20119;-71
2023/05/17 14:15:37;;;;;;;2.67;2.05;;;19.90;90.30;;;;;;10213451;28;20032;-64
2023/05/17 14:20:27;;;;;;;5.00;2.63;;;20.50;89.90;;;;;;10210994;28;20391;-61
2023/05/17 14:25:18;;;;;;;3.95;1.88;;;22.30;88.70;;;;;;10225332;28;20084;-63
2023/05/17 14:30:09;;;;;;;5.15;2.60;;;21.00;88.50;;;;;;10227879;27;20027;-61
2023/05/17 14:35:00;;;;;;;3.00;1.98;;;19.70;88.90;;;;;;10224612;28;20081;-62
2023/05/17 14:39:50;;;;;;;3.15;2.33;;;21.70;86.80;;;;;;10205832;28;20024;-62
2023/05/17 14:44:41;;;;;;;5.30;2.22;;;23.20;84.20;;;;;;10223671;28;20042;-64
2023/05/17 14:49:31;;;;;;;3.17;1.83;;;23.40;83.10;;;;;;10217298;28;20421;-61
2023/05/17 14:54:24;;;;;;;4.50;1.80;;;23.00;82.90;;;;;;10223639;28;20481;-67
2023/05/17 14:59:15;;;;;;;3.67;2.00;;;22.90;81.00;;;;;;10230743;27;20024;-64
2023/05/17 15:04:06;;;;;;;3.63;2.58;;;22.00;81.70;;;;;;10224997;28;20043;-76
2023/05/17 15:08:57;;;;;;;6.22;2.92;;;22.90;79.20;;;;;;10226829;28;20114;-62
2023/05/17 15:13:47;;;;;;;4.90;2.33;;;23.50;77.50;;;;;;10211249;27;20182;-67
2023/05/17 15:18:38;;;;;;;3.53;2.75;;;23.30;76.00;;;;;;10204473;28;20635;-66
2023/05/17 15:23:29;;;;;;;5.63;2.65;;;23.20;74.60;;;;;;10223105;28;20024;-74
2023/05/17 15:28:21;;;;;;;4.03;2.13;;;24.20;74.40;;;;;;10212535;27;20027;-80
2023/05/17 15:33:12;;;;;;;6.40;3.00;;;23.00;73.50;;;;;;10222152;28;20032;-64
2023/05/17 15:38:06;;;;;;;2.78;1.80;;;21.80;73.90;;;;;;10224015;28;20056;-65
2023/05/17 15:42:57;;;;;;;3.50;2.35;;;23.30;72.50;;;;;;10223268;28;20119;-63
2023/05/17 15:47:48;;;;;;;4.28;2.22;;;24.50;70.80;;;;;;10222186;28;20092;-63
2023/05/17 15:52:39;;;;;;;3.08;2.28;;;25.70;69.00;;;;;;10222065;28;20027;-62
2023/05/17 15:57:29;;;;;;;4.63;2.25;;;25.70;68.10;;;;;;10224992;27;20035;-64
2023/05/17 16:02:20;;;;;;;3.95;2.15;;;25.70;66.10;;;;;;10226306;28;20050;-64
2023/05/17 16:07:10;;;;;;;5.90;2.15;;;26.20;65.70;;;;;;10223881;28;20034;-67
2023/05/17 16:12:01;;;;;;;3.42;2.25;;;26.60;64.00;;;;;;10225026;27;20368;-75
2023/05/17 16:16:52;;;;;;;3.38;2.08;;;28.20;62.50;;;;;;10213899;28;20043;-68
2023/05/17 16:21:43;;;;;;;3.38;1.95;;;28.20;59.90;;;;;;10222776;27;20039;-63
2023/05/17 16:26:34;;;;;;;3.83;2.50;;;29.00;59.50;;;;;;10229955;27;20023;-62
2023/05/17 16:31:25;;;;;;;4.25;2.22;;;27.40;60.20;;;;;;10202584;28;20497;-63
2023/05/17 16:36:16;;;;;;;5.18;2.30;;;28.40;58.20;;;;;;10220856;28;20040;-66
2023/05/17 16:41:07;;;;;;;3.47;2.20;;;29.00;57.40;;;;;;10220599;28;20023;-64
2023/05/17 16:45:57;;;;;;;3.85;1.98;;;29.60;56.70;;;;;;10220251;28;20031;-62
2023/05/17 16:50:48;;;;;;;5.47;2.00;;;29.40;55.90;;;;;;10226981;28;20039;-62
2023/05/17 16:55:39;;;;;;;3.35;1.95;;;29.10;56.00;;;;;;10220985;28;20451;-66
2023/05/17 17:00:30;;;;;;;4.32;2.47;;;29.20;55.50;;;;;;10220499;28;20050;-73
2023/05/17 17:05:20;;;;;;;4.65;1.95;;;29.20;55.30;;;;;;10231157;28;20031;-68
2023/05/17 17:10:11;;;;;;;3.75;2.03;;;29.00;55.00;;;;;;10220621;28;20031;-67
2023/05/17 17:15:02;;;;;;;7.18;2.42;;;28.60;54.90;;;;;;10209446;28;20024;-64
2023/05/17 17:19:53;;;;;;;3.92;2.30;;;27.70;55.00;;;;;;10225201;28;20283;-75
2023/05/17 17:24:43;;;;;;;2.85;1.90;;;27.40;55.00;;;;;;10221161;28;20020;-76
2023/05/17 17:29:34;;;;;;;4.22;2.13;;;24.00;57.60;;;;;;10203777;28;20442;-63
2023/05/17 17:34:24;;;;;;;8.00;2.65;;;23.50;57.30;;;;;;10227673;28;20031;-65
2023/05/17 17:39:16;;;;;;;8.32;2.90;;;24.60;56.20;;;;;;10227923;28;20081;-71
2023/05/17 17:44:06;;;;;;;5.20;2.40;;;23.80;56.70;;;;;;10229843;28;20027;-71
2023/05/17 17:48:57;;;;;;;5.35;2.20;;;22.10;58.10;;;;;;10239577;27;20112;-66
2023/05/17 17:53:48;;;;;;;5.25;2.60;;;20.70;59.20;;;;;;10228484;28;20047;-63
2023/05/17 17:58:38;;;;;;;4.10;2.60;;;19.70;59.80;;;;;;10223877;28;20775;-62
2023/05/17 18:03:29;;;;;;;4.20;2.58;;;19.00;60.20;;;;;;10226514;28;20130;-66
2023/05/17 18:08:20;;;;;;;7.22;2.53;;;18.70;60.20;;;;;;10196482;28;20038;-64
2023/05/17 18:13:10;;;;;;;6.35;1.85;;;18.60;60.10;;;;;;10195102;28;20024;-62
2023/05/17 18:18:01;;;;;;;6.00;2.15;;;18.50;60.30;;;;;;10230577;27;20492;-63
2023/05/17 18:22:52;;;;;;;5.57;2.75;;;18.50;60.40;;;;;;10217065;28;20032;-64
2023/05/17 18:27:43;;;;;;;6.47;2.95;;;18.50;60.50;;;;;;10214829;27;20026;-67
2023/05/17 18:32:33;;;;;;;7.35;2.90;;;18.50;60.60;;;;;;10235693;27;20027;-61
2023/05/17 18:37:24;;;;;;;7.53;3.10;;;18.30;61.10;;;;;;10207017;28;20054;-62
2023/05/17 18:42:15;;;;;;;8.07;3.47;;;18.10;61.60;;;;;;10226814;27;20026;-63
2023/05/17 18:47:06;;;;;;;5.30;3.63;;;18.10;62.40;;;;;;10216939;28;20030;-62
2023/05/17 18:51:57;;;;;;;6.60;2.85;;;17.80;62.50;;;;;;10225410;28;20301;-62
2023/05/17 18:56:48;;;;;;;4.38;2.25;;;17.70;62.60;;;;;;10229240;27;20258;-65
2023/05/17 19:01:38;;;;;;;5.00;2.65;;;17.60;63.00;;;;;;10224623;28;20139;-64
2023/05/17 19:06:30;;;;;;;5.88;3.03;;;17.50;63.20;;;;;;10220587;27;20062;-62
2023/05/17 19:11:21;;;;;;;10.07;3.13;;;17.50;63.50;;;;;;10214605;27;20526;-63
2023/05/17 19:16:14;;;;;;;4.82;2.75;;;17.40;63.80;;;;;;10209761;28;20301;-63
2023/05/17 19:21:05;;;;;;;5.15;2.80;;;17.30;64.20;;;;;;10220324;28;20015;-63
2023/05/17 19:25:56;;;;;;;9.93;3.22;;;17.30;64.30;;;;;;10223198;27;20038;-65
2023/05/17 19:30:46;;;;;;;5.90;2.60;;;17.20;64.80;;;;;;10223155;28;20034;-62
2023/05/17 19:35:39;;;;;;;5.30;3.35;;;17.10;65.00;;;;;;10222309;28;20039;-63
2023/05/17 19:40:30;;;;;;;9.00;3.85;;;17.00;65.40;;;;;;10228232;27;20024;-69
2023/05/17 19:45:20;;;;;;;8.43;3.63;;;16.90;65.50;;;;;;10216552;28;20038;-68
2023/05/17 19:50:11;;;;;;;6.13;3.17;;;16.90;65.60;;;;;;10203610;28;20536;-66
2023/05/17 19:55:02;;;;;;;4.25;2.72;;;16.80;66.20;;;;;;10231621;27;20032;-66
2023/05/17 19:59:53;;;;;;;10.40;3.20;;;16.70;66.60;;;;;;10217715;28;20019;-72
2023/05/17 20:04:44;;;;;;;7.95;3.17;;;16.60;66.90;;;;;;10206483;28;20055;-67
2023/05/17 20:09:35;;;;;;;6.38;2.95;;;16.50;67.00;;;;;;10207879;28;20440;-67
2023/05/17 20:14:26;;;;;;;7.88;3.70;;;16.30;67.60;;;;;;10199238;28;20062;-64
2023/05/17 20:19:17;;;;;;;5.63;3.10;;;16.30;68.00;;;;;;10218809;28;20520;-71
2023/05/17 20:24:07;;;;;;;9.35;3.72;;;16.20;68.20;;;;;;10226300;27;20026;-63
2023/05/17 20:28:58;;;;;;;7.13;3.20;;;16.20;68.60;;;;;;10220971;28;20057;-71
2023/05/17 20:33:49;;;;;;;5.57;3.05;;;16.10;68.70;;;;;;10220721;28;20046;-62
2023/05/17 20:38:41;;;;;;;7.32;3.25;;;16.00;68.80;;;;;;10220980;28;20022;-63
2023/05/17 20:43:33;;;;;;;7.18;3.72;;;16.00;69.30;;;;;;10220576;28;20072;-61
2023/05/17 20:48:24;;;;;;;12.32;4.40;;;15.90;69.30;;;;;;10212282;28;20062;-62
2023/05/17 20:53:15;;;;;;;7.30;3.88;;;15.80;69.70;;;;;;10219951;28;20520;-61
2023/05/17 20:58:05;;;;;;;6.88;3.65;;;15.80;70.10;;;;;;10218353;28;20028;-62
2023/05/17 21:02:57;;;;;;;9.25;3.25;;;15.60;70.40;;;;;;10218813;28;20043;-65
2023/05/17 21:07:49;;;;;;;7.30;4.25;;;15.70;70.70;;;;;;10227284;28;20016;-62
2023/05/17 21:12:39;;;;;;;8.57;4.38;;;15.80;70.90;;;;;;10214036;28;20031;-67
2023/05/17 21:17:30;;;;;;;6.85;3.63;;;15.90;71.30;;;;;;10213497;27;20027;-63
2023/05/17 21:22:21;;;;;;;6.72;2.90;;;15.60;71.30;;;;;;10230771;27;20019;-61
2023/05/17 21:27:11;;;;;;;7.13;3.45;;;15.40;71.90;;;;;;10229088;28;20020;-63
2023/05/17 21:32:03;;;;;;;6.72;2.88;;;15.30;72.50;;;;;;10228957;27;20034;-62
2023/05/17 21:36:54;;;;;;;4.72;3.17;;;15.30;73.00;;;;;;10228420;28;20040;-64
2023/05/17 21:41:45;;;;;;;5.10;2.80;;;15.30;73.30;;;;;;10227947;28;20400;-62
2023/05/17 21:46:35;;;;;;;5.72;3.22;;;15.30;73.60;;;;;;10204735;28;20028;-61
2023/05/17 21:51:26;;;;;;;9.98;3.28;;;15.20;73.80;;;;;;10229146;28;20030;-62
2023/05/17 21:56:16;;;;;;;7.85;3.10;;;15.10;74.10;;;;;;10228092;28;20036;-63
2023/05/17 22:01:07;;;;;;;8.30;3.72;;;15.10;74.40;;;;;;10231311;27;20421;-61
2023/05/17 22:05:58;;;;;;;8.00;5.00;;;15.00;74.90;;;;;;10226313;28;20497;-62
2023/05/17 22:10:49;;;;;;;6.78;3.35;;;14.80;75.30;;;;;;10221843;28;20081;-61
2023/05/17 22:15:40;;;;;;;8.95;3.47;;;14.70;75.70;;;;;;10224656;27;20027;-62
2023/05/17 22:20:30;;;;;;;5.97;3.25;;;14.70;76.10;;;;;;10226328;28;20127;-62
2023/05/17 22:25:21;;;;;;;7.20;3.72;;;14.60;76.40;;;;;;10228247;28;20023;-63
2023/05/17 22:30:12;;;;;;;6.55;3.25;;;14.60;76.70;;;;;;10229698;27;20505;-62
2023/05/17 22:35:03;;;;;;;5.22;2.97;;;14.50;77.00;;;;;;10206732;28;20412;-62
2023/05/17 22:39:54;;;;;;;6.32;3.63;;;14.40;77.50;;;;;;10224505;28;20020;-67
2023/05/17 22:44:44;;;;;;;5.47;3.15;;;14.30;78.00;;;;;;10233024;27;20508;-63
2023/05/17 22:49:35;;;;;;;4.70;2.97;;;14.30;78.20;;;;;;10224301;28;20482;-62
2023/05/17 22:54:26;;;;;;;9.80;2.88;;;14.10;78.60;;;;;;10225145;28;20502;-61
2023/05/17 22:59:16;;;;;;;8.50;2.90;;;14.10;79.10;;;;;;10220249;28;20070;-61
2023/05/17 23:04:07;;;;;;;7.20;3.35;;;13.90;79.40;;;;;;10182235;28;20174;-60
2023/05/17 23:08:59;;;;;;;8.02;3.15;;;14.00;79.50;;;;;;10182904;28;20031;-61
2023/05/17 23:13:49;;;;;;;6.43;3.22;;;13.90;80.10;;;;;;10167317;28;20036;-62
2023/05/17 23:18:40;;;;;;;5.60;2.88;;;13.60;80.70;;;;;;10182372;28;20024;-63
2023/05/17 23:23:30;;;;;;;5.68;3.30;;;13.40;81.50;;;;;;10182941;28;20077;-63
2023/05/17 23:28:24;;;;;;;6.93;4.07;;;13.50;81.60;;;;;;10187073;28;20028;-61
2023/05/17 23:33:15;;;;;;;8.48;3.50;;;13.30;82.20;;;;;;10182549;28;20512;-65
2023/05/17 23:38:06;;;;;;;6.90;4.20;;;13.10;83.00;;;;;;10186848;28;20123;-69
2023/05/17 23:42:56;;;;;;;9.25;3.03;;;13.00;83.30;;;;;;10188658;28;20089;-61
2023/05/17 23:47:48;;;;;;;5.20;3.10;;;12.90;83.40;;;;;;10181374;28;20019;-66
2023/05/17 23:52:39;;;;;;;6.25;3.67;;;12.90;83.80;;;;;;10185147;28;20028;-62
2023/05/17 23:57:30;;;;;;;4.07;2.63;;;12.80;84.20;;;;;;10181586;28;20482;-73
